createdAt,value
2023-05-10T00:01:57.969Z,16.88
2023-05-10T00:04:28.198Z,16.99
2023-05-10T00:06:54.863Z,16.84
2023-05-10T00:09:21.181Z,16.69
2023-05-10T00:11:47.509Z,16.61
2023-05-10T00:14:13.871Z,16.50
2023-05-10T00:16:40.237Z,16.39
2023-05-10T00:19:06.562Z,16.50
2023-05-10T00:21:34.554Z,16.53
2023-05-10T00:24:01.258Z,16.59
2023-05-10T00:26:27.597Z,16.71
2023-05-10T00:28:54.005Z,16.58
2023-05-10T00:31:20.310Z,16.35
2023-05-10T00:33:46.683Z,16.41
2023-05-10T00:36:13.188Z,16.55
2023-05-10T00:38:39.506Z,16.49
2023-05-10T00:41:05.860Z,16.47
2023-05-10T00:43:32.266Z,16.59
2023-05-10T00:45:58.712Z,16.72
2023-05-10T00:48:25.411Z,16.75
2023-05-10T00:50:52.704Z,16.77
2023-05-10T00:53:19.691Z,16.63
2023-05-10T00:55:46.068Z,16.31
2023-05-10T00:58:13.566Z,16.41
2023-05-10T01:00:41.890Z,16.39
2023-05-10T01:03:08.675Z,16.34
2023-05-10T01:05:35.354Z,16.33
2023-05-10T01:08:01.974Z,16.28
2023-05-10T01:10:28.351Z,16.48
2023-05-10T01:12:54.884Z,16.44
2023-05-10T01:15:21.489Z,16.30
2023-05-10T01:17:48.682Z,16.28
2023-05-10T01:20:16.532Z,16.34
2023-05-10T01:22:55.229Z,16.44
2023-05-10T01:25:54.883Z,16.17
2023-05-10T01:28:30.759Z,16.35
2023-05-10T01:31:10.600Z,16.45
2023-05-10T01:33:42.753Z,16.42
2023-05-10T01:36:27.987Z,16.39
2023-05-10T01:38:59.448Z,16.46
2023-05-10T01:41:38.489Z,16.43
2023-05-10T01:44:04.774Z,16.53
2023-05-10T01:46:38.692Z,16.44
2023-05-10T01:49:25.347Z,16.33
2023-05-10T01:51:54.652Z,16.44
2023-05-10T01:54:22.562Z,16.40
2023-05-10T01:56:51.484Z,16.36
2023-05-10T01:59:19.263Z,16.42
2023-05-10T02:01:46.341Z,16.30
2023-05-10T02:04:15.977Z,16.27
2023-05-10T02:06:42.547Z,16.35
2023-05-10T02:09:09.986Z,16.39
2023-05-10T02:11:38.541Z,16.40
2023-05-10T02:14:06.609Z,16.16
2023-05-10T02:16:33.420Z,16.26
2023-05-10T02:19:00.422Z,16.37
2023-05-10T02:21:27.727Z,16.38
2023-05-10T02:23:55.130Z,16.29
2023-05-10T02:26:22.098Z,16.28
2023-05-10T02:28:48.749Z,16.25
2023-05-10T02:31:15.616Z,16.23
2023-05-10T02:33:42.354Z,16.26
2023-05-10T02:36:10.327Z,16.34
2023-05-10T02:38:37.270Z,16.23
2023-05-10T02:41:05.338Z,16.25
2023-05-10T02:43:33.249Z,16.33
2023-05-10T02:45:59.801Z,16.34
2023-05-10T02:48:26.806Z,16.30
2023-05-10T02:50:56.762Z,16.34
2023-05-10T02:53:32.174Z,16.31
2023-05-10T02:56:00.715Z,16.34
2023-05-10T02:58:28.168Z,16.37
2023-05-10T03:00:54.773Z,16.40
2023-05-10T03:03:21.960Z,16.27
2023-05-10T03:05:48.295Z,16.11
2023-05-10T03:08:14.971Z,16.08
2023-05-10T03:10:53.001Z,16.09
2023-05-10T03:13:22.278Z,16.09
2023-05-10T03:15:56.558Z,15.88
2023-05-10T03:18:23.936Z,15.67
2023-05-10T03:20:51.407Z,15.51
2023-05-10T03:23:20.496Z,15.62
2023-05-10T03:25:48.018Z,15.63
2023-05-10T03:28:15.380Z,15.57
2023-05-10T03:30:42.522Z,15.65
2023-05-10T03:33:09.153Z,15.73
2023-05-10T03:35:35.652Z,15.81
2023-05-10T03:38:02.262Z,15.73
2023-05-10T03:40:33.121Z,15.65
2023-05-10T03:43:00.182Z,15.54
2023-05-10T03:45:27.723Z,15.46
2023-05-10T03:47:55.021Z,15.49
2023-05-10T03:50:21.593Z,15.41
2023-05-10T03:52:48.119Z,15.41
2023-05-10T03:55:14.439Z,15.41
2023-05-10T03:57:40.819Z,15.33
2023-05-10T04:00:11.632Z,15.40
2023-05-10T04:02:38.701Z,15.49
2023-05-10T04:05:05.484Z,15.61
2023-05-10T04:07:31.838Z,15.60
2023-05-10T04:09:58.968Z,15.73
2023-05-10T04:12:27.833Z,15.74
2023-05-10T04:14:54.204Z,15.69
2023-05-10T04:17:20.522Z,15.72
2023-05-10T04:19:46.873Z,15.68
2023-05-10T04:22:13.201Z,15.44
2023-05-10T04:24:39.656Z,15.46
2023-05-10T04:27:05.948Z,15.49
2023-05-10T04:29:32.305Z,15.61
2023-05-10T04:31:58.846Z,15.72
2023-05-10T04:34:25.332Z,15.82
2023-05-10T04:36:51.745Z,15.81
2023-05-10T04:39:18.080Z,15.71
2023-05-10T04:41:44.465Z,15.71
2023-05-10T04:44:10.796Z,15.68
2023-05-10T04:46:37.311Z,15.65
2023-05-10T04:49:03.652Z,15.64
2023-05-10T04:51:30.008Z,15.64
2023-05-10T04:54:05.262Z,15.65
2023-05-10T04:56:32.619Z,15.68
2023-05-10T04:58:59.091Z,15.65
2023-05-10T05:01:25.411Z,15.50
2023-05-10T05:03:53.741Z,15.53
2023-05-10T05:06:22.348Z,15.43
2023-05-10T05:08:50.313Z,15.36
2023-05-10T05:11:17.488Z,15.34
2023-05-10T05:13:44.817Z,15.28
2023-05-10T05:16:12.360Z,15.32
2023-05-10T05:18:38.822Z,15.27
2023-05-10T05:21:14.305Z,14.86
2023-05-10T05:23:40.626Z,14.76
2023-05-10T05:26:06.927Z,14.74
2023-05-10T05:28:38.114Z,14.74
2023-05-10T05:31:08.659Z,14.69
2023-05-10T05:33:35.368Z,14.78
2023-05-10T05:36:02.531Z,14.79
2023-05-10T05:38:29.127Z,14.53
2023-05-10T05:40:56.660Z,14.68
2023-05-10T05:43:23.104Z,14.58
2023-05-10T05:45:49.619Z,14.65
2023-05-10T05:48:16.078Z,14.68
2023-05-10T05:50:42.474Z,14.85
2023-05-10T05:53:09.661Z,14.81
2023-05-10T05:55:36.322Z,14.65
2023-05-10T05:58:02.752Z,14.44
2023-05-10T06:00:29.131Z,14.50
2023-05-10T06:02:55.511Z,14.71
2023-05-10T06:05:22.721Z,14.66
2023-05-10T06:07:49.055Z,14.79
2023-05-10T06:10:15.389Z,14.82
2023-05-10T06:12:41.819Z,14.83
2023-05-10T06:15:08.553Z,14.88
2023-05-10T06:17:34.980Z,15.00
2023-05-10T06:20:01.890Z,15.06
2023-05-10T06:22:28.188Z,15.08
2023-05-10T06:24:54.496Z,15.26
2023-05-10T06:27:20.924Z,15.47
2023-05-10T06:29:47.236Z,15.52
2023-05-10T06:32:13.625Z,15.45
2023-05-10T06:34:39.992Z,15.45
2023-05-10T06:37:06.288Z,15.45
2023-05-10T06:39:32.610Z,15.50
2023-05-10T06:41:58.942Z,15.47
2023-05-10T06:44:25.252Z,15.42
2023-05-10T06:46:52.121Z,15.47
2023-05-10T06:49:18.586Z,15.41
2023-05-10T06:51:44.895Z,15.43
2023-05-10T06:54:11.320Z,15.36
2023-05-10T06:56:37.761Z,15.35
2023-05-10T06:59:04.391Z,15.42
2023-05-10T07:01:30.776Z,15.30
2023-05-10T07:03:58.416Z,15.41
2023-05-10T07:06:32.784Z,15.52
2023-05-10T07:09:00.200Z,15.57
2023-05-10T07:11:27.745Z,15.63
2023-05-10T07:13:54.049Z,15.56
2023-05-10T07:16:20.593Z,15.65
2023-05-10T07:18:47.014Z,15.70
2023-05-10T07:21:13.646Z,15.64
2023-05-10T07:23:41.346Z,15.73
2023-05-10T07:26:08.777Z,15.84
2023-05-10T07:28:37.618Z,15.84
2023-05-10T07:31:04.145Z,15.79
2023-05-10T07:33:30.446Z,15.80
2023-05-10T07:35:57.488Z,15.82
2023-05-10T07:38:24.332Z,15.84
2023-05-10T07:40:50.762Z,15.90
2023-05-10T07:43:17.071Z,15.92
2023-05-10T07:45:43.515Z,15.90
2023-05-10T07:48:09.915Z,16.06
2023-05-10T07:50:36.260Z,16.01
2023-05-10T07:53:02.584Z,15.81
2023-05-10T07:55:28.965Z,15.84
2023-05-10T07:57:56.659Z,15.93
2023-05-10T08:00:23.044Z,15.81
2023-05-10T08:02:49.572Z,15.75
2023-05-10T08:05:16.366Z,15.64
2023-05-10T08:07:43.548Z,15.39
2023-05-10T08:10:10.720Z,15.53
2023-05-10T08:12:37.118Z,15.75
2023-05-10T08:15:04.227Z,15.85
2023-05-10T08:17:30.662Z,15.75
2023-05-10T08:19:57.677Z,15.67
2023-05-10T08:22:24.123Z,15.80
2023-05-10T08:24:50.527Z,15.98
2023-05-10T08:27:16.831Z,16.14
2023-05-10T08:29:50.199Z,15.94
2023-05-10T08:32:17.122Z,15.90
2023-05-10T08:34:43.515Z,16.12
2023-05-10T08:37:10.002Z,16.29
2023-05-10T08:39:36.608Z,16.15
2023-05-10T08:42:04.736Z,16.07
2023-05-10T08:44:35.068Z,16.03
2023-05-10T08:47:03.606Z,16.03
2023-05-10T08:49:31.940Z,15.99
2023-05-10T08:51:59.045Z,15.97
2023-05-10T08:54:27.039Z,16.11
2023-05-10T08:56:54.221Z,16.28
2023-05-10T08:59:20.733Z,16.25
2023-05-10T09:01:49.167Z,16.36
2023-05-10T09:04:15.564Z,16.32
2023-05-10T09:06:42.135Z,16.17
2023-05-10T09:09:08.554Z,16.32
2023-05-10T09:11:34.951Z,15.80
2023-05-10T09:14:02.213Z,15.63
2023-05-10T09:16:28.601Z,15.84
2023-05-10T09:18:57.656Z,16.06
2023-05-10T09:21:24.094Z,16.31
2023-05-10T09:23:51.235Z,16.27
2023-05-10T09:26:18.436Z,16.49
2023-05-10T09:28:54.783Z,16.69
2023-05-10T09:31:21.378Z,16.82
2023-05-10T09:33:48.672Z,16.77
2023-05-10T09:36:15.536Z,16.74
2023-05-10T09:38:52.806Z,16.83
2023-05-10T09:41:20.337Z,17.00
2023-05-10T09:43:46.705Z,17.13
2023-05-10T09:46:13.190Z,17.29
2023-05-10T09:48:43.312Z,17.36
2023-05-10T09:51:09.681Z,17.38
2023-05-10T09:53:36.025Z,17.12
2023-05-10T09:56:02.507Z,17.12
2023-05-10T09:58:28.849Z,17.15
2023-05-10T10:00:56.443Z,17.13
2023-05-10T10:03:23.582Z,16.93
2023-05-10T10:05:50.369Z,16.68
2023-05-10T10:08:17.576Z,16.50
2023-05-10T10:10:47.115Z,16.21
2023-05-10T10:13:13.946Z,16.31
2023-05-10T10:15:40.304Z,16.18
2023-05-10T10:18:08.062Z,15.68
2023-05-10T10:20:34.443Z,15.37
2023-05-10T10:23:00.777Z,15.45
2023-05-10T10:25:28.143Z,15.76
2023-05-10T10:27:54.613Z,15.77
2023-05-10T10:30:27.837Z,15.35
2023-05-10T10:33:00.277Z,15.28
2023-05-10T10:35:27.749Z,15.15
2023-05-10T10:37:54.040Z,15.11
2023-05-10T10:40:33.631Z,14.92
2023-05-10T10:43:19.835Z,14.92
2023-05-10T10:46:06.893Z,14.89
2023-05-10T10:48:33.346Z,15.01
2023-05-10T10:50:59.727Z,14.98
2023-05-10T10:53:29.857Z,14.99
2023-05-10T10:56:16.527Z,14.95
2023-05-10T10:58:51.040Z,15.02
2023-05-10T11:01:18.239Z,15.04
2023-05-10T11:03:59.749Z,15.28
2023-05-10T11:06:29.806Z,15.24
2023-05-10T11:08:57.386Z,15.33
2023-05-10T11:11:24.023Z,15.38
2023-05-10T11:13:51.427Z,15.55
2023-05-10T11:16:25.095Z,15.67
2023-05-10T11:18:57.825Z,15.80
2023-05-10T11:21:24.402Z,15.93
2023-05-10T11:23:52.042Z,16.05
2023-05-10T11:26:18.914Z,16.12
2023-05-10T11:28:46.279Z,16.20
2023-05-10T11:31:16.429Z,16.14
2023-05-10T11:33:46.431Z,16.22
2023-05-10T11:36:13.482Z,16.15
2023-05-10T11:38:39.795Z,16.31
2023-05-10T11:41:06.164Z,16.42
2023-05-10T11:43:33.139Z,16.69
2023-05-10T11:45:59.939Z,16.84
2023-05-10T11:48:26.495Z,16.91
2023-05-10T11:50:53.796Z,16.78
2023-05-10T11:53:21.429Z,16.75
2023-05-10T11:55:48.451Z,16.20
2023-05-10T11:58:14.803Z,15.99
2023-05-10T12:00:41.239Z,15.69
2023-05-10T12:03:07.750Z,15.68
2023-05-10T12:05:34.752Z,15.66
2023-05-10T12:08:13.943Z,15.58
2023-05-10T12:10:40.798Z,15.56
2023-05-10T12:13:11.479Z,15.27
2023-05-10T12:15:37.892Z,15.17
2023-05-10T12:18:04.256Z,15.23
2023-05-10T12:20:30.786Z,15.33
2023-05-10T12:23:00.585Z,15.37
2023-05-10T12:25:30.751Z,15.79
2023-05-10T12:27:58.567Z,16.03
2023-05-10T12:30:26.716Z,15.74
2023-05-10T12:32:53.752Z,15.91
2023-05-10T12:35:24.964Z,16.08
2023-05-10T12:37:51.681Z,16.17
2023-05-10T12:40:18.337Z,16.46
2023-05-10T12:42:47.899Z,16.86
2023-05-10T12:45:14.367Z,17.01
2023-05-10T12:47:43.767Z,17.03
2023-05-10T12:50:10.751Z,17.14
2023-05-10T12:52:37.496Z,17.12
2023-05-10T12:55:04.175Z,17.14
2023-05-10T12:57:30.625Z,17.24
2023-05-10T12:59:57.704Z,17.35
2023-05-10T13:02:24.223Z,17.30
2023-05-10T13:04:51.109Z,17.35
2023-05-10T13:07:17.795Z,17.50
2023-05-10T13:09:44.366Z,17.57
2023-05-10T13:12:10.918Z,17.56
2023-05-10T13:14:37.323Z,17.34
2023-05-10T13:17:03.840Z,17.15
2023-05-10T13:19:30.399Z,17.11
2023-05-10T13:21:57.141Z,17.11
2023-05-10T13:24:23.504Z,17.18
2023-05-10T13:26:50.316Z,17.09
2023-05-10T13:29:18.929Z,17.09
2023-05-10T13:31:45.337Z,17.20
2023-05-10T13:34:11.930Z,17.32
2023-05-10T13:36:38.275Z,17.31
2023-05-10T13:39:06.216Z,17.25
2023-05-10T13:41:32.698Z,17.19
2023-05-10T13:43:59.015Z,17.16
2023-05-10T13:46:25.413Z,17.15
2023-05-10T13:48:51.810Z,17.10
2023-05-10T13:51:18.496Z,17.09
2023-05-10T13:53:44.778Z,17.18
2023-05-10T13:58:55.922Z,17.42
2023-05-10T14:01:22.391Z,17.42
2023-05-10T14:03:49.283Z,17.28
2023-05-10T14:06:15.853Z,16.99
2023-05-10T14:08:42.220Z,16.68
2023-05-10T14:11:08.599Z,16.60
2023-05-10T14:13:35.109Z,16.54
2023-05-10T14:16:01.766Z,16.38
2023-05-10T14:18:28.842Z,16.36
2023-05-10T14:20:55.792Z,16.38
2023-05-10T14:23:25.020Z,16.46
2023-05-10T14:25:51.988Z,16.56
2023-05-10T14:28:19.913Z,16.70
2023-05-10T14:30:46.359Z,16.81
2023-05-10T14:33:13.300Z,16.92
2023-05-10T14:35:40.291Z,17.01
2023-05-10T14:38:06.679Z,17.14
2023-05-10T14:40:33.043Z,17.19
2023-05-10T14:43:00.150Z,17.28
2023-05-10T14:45:26.532Z,17.35
2023-05-10T14:47:52.972Z,17.31
2023-05-10T14:50:35.133Z,17.35
2023-05-10T14:55:46.301Z,17.20
2023-05-10T14:58:12.776Z,17.03
2023-05-10T15:00:39.140Z,16.95
2023-05-10T15:03:06.296Z,16.82
2023-05-10T15:05:33.127Z,16.85
2023-05-10T15:08:00.253Z,16.72
2023-05-10T15:10:26.686Z,16.38
2023-05-10T15:12:53.113Z,16.21
2023-05-10T15:15:19.577Z,16.20
2023-05-10T15:17:46.929Z,16.27
2023-05-10T15:20:13.389Z,16.25
2023-05-10T15:22:39.786Z,16.39
2023-05-10T15:25:06.607Z,16.59
2023-05-10T15:27:32.952Z,17.01
2023-05-10T15:30:00.950Z,17.44
2023-05-10T15:32:27.488Z,17.78
2023-05-10T15:34:53.844Z,17.95
2023-05-10T15:37:20.177Z,18.11
2023-05-10T15:39:46.546Z,18.26
2023-05-10T15:42:13.296Z,18.28
2023-05-10T15:44:39.870Z,18.16
2023-05-10T15:47:06.986Z,18.22
2023-05-10T15:49:33.841Z,18.26
2023-05-10T15:52:00.226Z,18.20
2023-05-10T15:54:26.900Z,18.12
2023-05-10T15:56:54.881Z,18.13
2023-05-10T15:59:21.237Z,18.02
2023-05-10T16:01:47.818Z,17.79
2023-05-10T16:04:14.296Z,17.73
2023-05-10T16:06:40.667Z,17.54
2023-05-10T16:09:07.855Z,17.09
2023-05-10T16:11:34.665Z,16.58
2023-05-10T16:14:01.003Z,16.31
2023-05-10T16:16:27.562Z,16.02
2023-05-10T16:18:54.199Z,16.09
2023-05-10T16:21:20.836Z,16.15
2023-05-10T16:23:47.351Z,16.10
2023-05-10T16:26:13.646Z,15.74
2023-05-10T16:28:40.955Z,15.54
2023-05-10T16:31:07.397Z,15.52
2023-05-10T16:33:33.731Z,15.60
2023-05-10T16:36:00.727Z,15.82
2023-05-10T16:38:27.182Z,16.04
2023-05-10T16:40:53.520Z,16.24
2023-05-10T16:43:19.861Z,16.17
2023-05-10T16:45:46.202Z,16.11
2023-05-10T16:48:12.596Z,16.11
2023-05-10T16:50:39.008Z,16.17
2023-05-10T16:53:05.541Z,16.33
2023-05-10T16:55:31.984Z,16.42
2023-05-10T16:58:00.812Z,16.38
2023-05-10T17:00:27.340Z,16.28
2023-05-10T17:02:54.686Z,16.23
2023-05-10T17:05:21.653Z,16.13
2023-05-10T17:07:48.097Z,16.00
2023-05-10T17:10:14.514Z,15.97
2023-05-10T17:12:41.066Z,16.07
2023-05-10T17:15:08.365Z,16.22
2023-05-10T17:17:34.792Z,16.22
2023-05-10T17:20:01.394Z,16.20
2023-05-10T17:22:30.506Z,16.17
2023-05-10T17:24:56.885Z,16.16
2023-05-10T17:27:23.346Z,16.26
2023-05-10T17:29:49.639Z,16.29
2023-05-10T17:32:16.092Z,16.34
2023-05-10T17:34:42.538Z,16.32
2023-05-10T17:37:09.301Z,16.26
2023-05-10T17:39:35.962Z,16.18
2023-05-10T17:42:03.841Z,16.12
2023-05-10T17:44:30.300Z,16.00
2023-05-10T17:46:56.693Z,15.97
2023-05-10T17:49:23.228Z,15.98
2023-05-10T17:51:49.664Z,15.84
2023-05-10T17:54:16.067Z,15.71
2023-05-10T17:56:42.758Z,15.64
2023-05-10T17:59:09.114Z,15.56
2023-05-10T18:01:35.979Z,15.25
2023-05-10T18:04:02.430Z,15.15
2023-05-10T18:06:29.856Z,15.16
2023-05-10T18:08:56.454Z,15.04
2023-05-10T18:11:22.965Z,15.08
2023-05-10T18:13:49.936Z,15.21
2023-05-10T18:16:16.407Z,15.15
2023-05-10T18:18:42.866Z,15.29
2023-05-10T18:21:09.573Z,15.42
2023-05-10T18:23:36.204Z,15.52
2023-05-10T18:26:04.885Z,15.51
2023-05-10T18:28:31.297Z,15.51
2023-05-10T18:30:59.544Z,15.32
2023-05-10T18:33:26.068Z,15.30
2023-05-10T18:35:52.419Z,15.33
2023-05-10T18:38:19.490Z,15.30
2023-05-10T18:40:46.044Z,15.13
2023-05-10T18:43:12.655Z,15.14
2023-05-10T18:45:39.614Z,15.22
2023-05-10T18:48:06.729Z,15.34
2023-05-10T18:50:33.213Z,15.33
2023-05-10T18:52:59.868Z,15.27
2023-05-10T18:55:26.287Z,15.14
2023-05-10T18:58:01.062Z,15.09
2023-05-10T19:00:29.170Z,15.08
2023-05-10T19:02:55.689Z,15.07
2023-05-10T19:05:27.099Z,15.00
2023-05-10T19:07:53.420Z,15.08
2023-05-10T19:10:19.810Z,15.00
2023-05-10T19:12:46.239Z,15.02
2023-05-10T19:15:12.677Z,15.11
2023-05-10T19:17:42.153Z,15.10
2023-05-10T19:20:10.546Z,15.14
2023-05-10T19:22:51.480Z,15.16
2023-05-10T19:25:30.315Z,15.12
2023-05-10T19:27:59.858Z,14.94
2023-05-10T19:30:26.519Z,14.84
2023-05-10T19:32:52.991Z,14.77
2023-05-10T19:35:19.700Z,14.68
2023-05-10T19:37:47.227Z,14.59
2023-05-10T19:40:15.661Z,14.54
2023-05-10T19:42:41.981Z,14.53
2023-05-10T19:45:08.939Z,14.31
2023-05-10T19:47:36.304Z,13.85
2023-05-10T19:50:05.194Z,13.94
2023-05-10T19:52:31.571Z,13.89
2023-05-10T19:54:58.636Z,13.79
2023-05-10T19:57:25.104Z,13.81
2023-05-10T19:59:51.416Z,13.96
2023-05-10T20:02:17.812Z,14.09
2023-05-10T20:04:44.159Z,14.21
2023-05-10T20:07:12.346Z,14.39
2023-05-10T20:09:39.185Z,14.46
2023-05-10T20:12:05.508Z,14.43
2023-05-10T20:14:31.988Z,14.42
2023-05-10T20:17:00.860Z,14.42
2023-05-10T20:19:27.429Z,14.33
2023-05-10T20:21:56.221Z,14.22
2023-05-10T20:24:22.642Z,14.23
2023-05-10T20:26:49.451Z,14.28
2023-05-10T20:29:15.788Z,14.40
2023-05-10T20:31:42.539Z,14.44
2023-05-10T20:34:08.920Z,14.47
2023-05-10T20:36:35.207Z,14.46
2023-05-10T20:39:01.591Z,14.48
2023-05-10T20:41:27.904Z,14.39
2023-05-10T20:43:54.196Z,14.41
2023-05-10T20:46:20.600Z,14.49
2023-05-10T20:48:47.170Z,14.44
2023-05-10T20:51:13.525Z,14.30
2023-05-10T20:53:39.963Z,14.29
2023-05-10T20:56:06.419Z,14.06
2023-05-10T20:58:32.849Z,13.96
2023-05-10T21:01:00.737Z,13.93
2023-05-10T21:03:27.264Z,13.83
2023-05-10T21:05:53.623Z,13.81
2023-05-10T21:08:19.988Z,13.80
2023-05-10T21:10:46.513Z,13.83
2023-05-10T21:13:13.210Z,13.86
2023-05-10T21:15:39.554Z,13.79
2023-05-10T21:18:06.359Z,13.91
2023-05-10T21:20:32.834Z,13.99
2023-05-10T21:23:00.657Z,13.94
2023-05-10T21:25:27.041Z,13.92
2023-05-10T21:27:53.416Z,13.92
2023-05-10T21:30:19.971Z,13.92
2023-05-10T21:32:46.768Z,13.89
2023-05-10T21:35:13.200Z,13.98
2023-05-10T21:37:39.753Z,14.01
2023-05-10T21:40:06.266Z,14.09
2023-05-10T21:42:32.704Z,14.16
2023-05-10T21:44:59.505Z,14.19
2023-05-10T21:47:25.900Z,14.09
2023-05-10T21:49:52.397Z,14.06
2023-05-10T21:52:18.767Z,14.18
2023-05-10T21:54:45.220Z,14.22
2023-05-10T21:57:12.055Z,14.13
2023-05-10T21:59:39.387Z,14.17
2023-05-10T22:02:05.754Z,14.15
2023-05-10T22:04:32.338Z,14.10
2023-05-10T22:06:58.781Z,14.03
2023-05-10T22:09:25.390Z,14.00
2023-05-10T22:11:51.866Z,13.94
2023-05-10T22:14:18.383Z,14.03
2023-05-10T22:16:44.813Z,14.10
2023-05-10T22:19:11.257Z,14.05
2023-05-10T22:21:37.671Z,14.10
2023-05-10T22:24:04.086Z,14.23
2023-05-10T22:26:30.813Z,14.21
2023-05-10T22:28:57.600Z,14.16
2023-05-10T22:31:23.960Z,14.09
2023-05-10T22:33:50.483Z,14.09
2023-05-10T22:36:16.840Z,14.00
2023-05-10T22:38:43.196Z,13.93
2023-05-10T22:41:09.506Z,13.94
2023-05-10T22:43:35.961Z,13.66
2023-05-10T22:46:02.376Z,13.77
2023-05-10T22:48:28.836Z,13.72
2023-05-10T22:50:55.249Z,13.75
2023-05-10T22:53:21.699Z,13.74
2023-05-10T22:55:48.224Z,13.66
2023-05-10T22:58:14.630Z,13.71
2023-05-10T23:00:41.247Z,13.79
2023-05-10T23:03:07.729Z,13.85
2023-05-10T23:05:34.157Z,13.80
2023-05-10T23:08:00.634Z,13.81
2023-05-10T23:10:26.926Z,13.72
2023-05-10T23:12:53.241Z,13.80
2023-05-10T23:15:19.616Z,13.92
2023-05-10T23:17:46.411Z,13.84
2023-05-10T23:20:13.053Z,13.93
2023-05-10T23:22:40.090Z,13.99
2023-05-10T23:25:06.897Z,14.00
2023-05-10T23:27:33.300Z,14.03
2023-05-10T23:30:00.036Z,14.06
2023-05-10T23:32:26.464Z,14.04
2023-05-10T23:34:53.154Z,13.87
2023-05-10T23:37:19.495Z,13.81
2023-05-10T23:39:45.922Z,13.83
2023-05-10T23:42:12.241Z,13.85
2023-05-10T23:44:38.617Z,13.83
2023-05-10T23:47:05.077Z,13.77
2023-05-10T23:49:31.849Z,13.72
2023-05-10T23:51:58.175Z,13.79
2023-05-10T23:54:24.513Z,13.80
2023-05-10T23:56:51.560Z,13.85
2023-05-10T23:59:17.952Z,13.89
